sensor_id;sensor_type;location;lat;lon;timestamp;temperature;humidity
52481;DHT22;38393;52.404;13.532;2023-07-28T00:02:15;16.40;99.90
52481;DHT22;38393;52.404;13.532;2023-07-28T00:04:40;16.40;99.90
52481;DHT22;38393;52.404;13.532;2023-07-28T00:07:06;16.40;99.90
52481;DHT22;38393;52.404;13.532;2023-07-28T00:09:31;16.50;99.90
52481;DHT22;38393;52.404;13.532;2023-07-28T00:11:57;16.40;99.90
52481;DHT22;38393;52.404;13.532;2023-07-28T00:14:23;16.40;99.90
52481;DHT22;38393;52.404;13.532;2023-07-28T00:16:50;16.50;99.90
52481;DHT22;38393;52.404;13.532;2023-07-28T00:19:16;16.50;99.90
52481;DHT22;38393;52.404;13.532;2023-07-28T00:21:41;16.70;99.90
52481;DHT22;38393;52.404;13.532;2023-07-28T00:24:07;16.60;99.90
52481;DHT22;38393;52.404;13.532;2023-07-28T00:26:32;16.60;99.90
52481;DHT22;38393;52.404;13.532;2023-07-28T00:28:59;16.50;99.90
52481;DHT22;38393;52.404;13.532;2023-07-28T00:31:24;16.60;99.90
52481;DHT22;38393;52.404;13.532;2023-07-28T00:33:50;16.60;99.90
52481;DHT22;38393;52.404;13.532;2023-07-28T00:36:15;16.60;99.90
52481;DHT22;38393;52.404;13.532;2023-07-28T00:38:41;16.60;99.90
52481;DHT22;38393;52.404;13.532;2023-07-28T00:41:06;16.60;99.90
52481;DHT22;38393;52.404;13.532;2023-07-28T00:43:32;16.60;99.90
52481;DHT22;38393;52.404;13.532;2023-07-28T00:45:57;16.60;99.90
52481;DHT22;38393;52.404;13.532;2023-07-28T00:48:23;16.70;99.90
52481;DHT22;38393;52.404;13.532;2023-07-28T00:50:50;16.70;99.90
52481;DHT22;38393;52.404;13.532;2023-07-28T00:53:16;16.70;99.90
52481;DHT22;38393;52.404;13.532;2023-07-28T00:55:42;16.70;99.90
52481;DHT22;38393;52.404;13.532;2023-07-28T00:58:08;16.70;99.90
52481;DHT22;38393;52.404;13.532;2023-07-28T01:00:34;16.80;99.90
52481;DHT22;38393;52.404;13.532;2023-07-28T01:03:00;16.70;99.90
52481;DHT22;38393;52.404;13.532;2023-07-28T01:05:31;16.70;99.90
52481;DHT22;38393;52.404;13.532;2023-07-28T01:08:19;16.80;99.90
52481;DHT22;38393;52.404;13.532;2023-07-28T01:10:47;16.80;99.90
52481;DHT22;38393;52.404;13.532;2023-07-28T01:13:12;16.70;99.90
52481;DHT22;38393;52.404;13.532;2023-07-28T01:15:38;16.70;99.90
52481;DHT22;38393;52.404;13.532;2023-07-28T01:18:03;16.70;99.90
52481;DHT22;38393;52.404;13.532;2023-07-28T01:20:30;16.80;99.90
52481;DHT22;38393;52.404;13.532;2023-07-28T01:23:09;16.80;99.90
52481;DHT22;38393;52.404;13.532;2023-07-28T01:28:16;16.80;99.90
52481;DHT22;38393;52.404;13.532;2023-07-28T01:30:42;16.80;99.90
52481;DHT22;38393;52.404;13.532;2023-07-28T01:33:08;16.80;99.90
52481;DHT22;38393;52.404;13.532;2023-07-28T01:35:35;16.80;99.90
52481;DHT22;38393;52.404;13.532;2023-07-28T01:38:01;16.90;99.90
52481;DHT22;38393;52.404;13.532;2023-07-28T01:40:26;16.90;99.90
52481;DHT22;38393;52.404;13.532;2023-07-28T01:42:52;17.00;99.90
52481;DHT22;38393;52.404;13.532;2023-07-28T01:45:17;16.90;99.90
52481;DHT22;38393;52.404;13.532;2023-07-28T01:47:43;16.90;99.90
52481;DHT22;38393;52.404;13.532;2023-07-28T01:50:08;16.90;99.90
52481;DHT22;38393;52.404;13.532;2023-07-28T01:52:34;16.90;99.90
52481;DHT22;38393;52.404;13.532;2023-07-28T01:54:59;17.00;99.90
52481;DHT22;38393;52.404;13.532;2023-07-28T01:57:27;16.90;99.90
52481;DHT22;38393;52.404;13.532;2023-07-28T01:59:53;17.00;99.90
52481;DHT22;38393;52.404;13.532;2023-07-28T02:02:19;17.00;99.90
52481;DHT22;38393;52.404;13.532;2023-07-28T02:04:44;17.00;99.90
52481;DHT22;38393;52.404;13.532;2023-07-28T02:07:10;17.00;99.90
52481;DHT22;38393;52.404;13.532;2023-07-28T02:09:35;17.10;99.90
52481;DHT22;38393;52.404;13.532;2023-07-28T02:12:01;17.10;99.90
52481;DHT22;38393;52.404;13.532;2023-07-28T02:14:26;17.10;99.90
52481;DHT22;38393;52.404;13.532;2023-07-28T02:16:52;17.00;99.90
52481;DHT22;38393;52.404;13.532;2023-07-28T02:19:17;17.10;99.90
52481;DHT22;38393;52.404;13.532;2023-07-28T02:21:42;17.10;99.90
52481;DHT22;38393;52.404;13.532;2023-07-28T02:24:08;17.10;99.90
52481;DHT22;38393;52.404;13.532;2023-07-28T02:26:33;17.10;99.90
52481;DHT22;38393;52.404;13.532;2023-07-28T02:28:59;17.10;99.90
52481;DHT22;38393;52.404;13.532;2023-07-28T02:31:24;17.10;99.90
52481;DHT22;38393;52.404;13.532;2023-07-28T02:33:50;17.00;99.90
52481;DHT22;38393;52.404;13.532;2023-07-28T02:36:15;17.10;99.90
52481;DHT22;38393;52.404;13.532;2023-07-28T02:38:41;17.10;99.90
52481;DHT22;38393;52.404;13.532;2023-07-28T02:41:06;17.20;99.90
52481;DHT22;38393;52.404;13.532;2023-07-28T02:43:32;17.10;99.90
52481;DHT22;38393;52.404;13.532;2023-07-28T02:45:58;17.10;99.90
52481;DHT22;38393;52.404;13.532;2023-07-28T02:48:23;17.10;99.90
52481;DHT22;38393;52.404;13.532;2023-07-28T02:50:50;17.10;99.90
52481;DHT22;38393;52.404;13.532;2023-07-28T02:53:16;17.10;99.90
52481;DHT22;38393;52.404;13.532;2023-07-28T02:55:45;17.10;99.90
52481;DHT22;38393;52.404;13.532;2023-07-28T02:58:12;17.10;99.90
52481;DHT22;38393;52.404;13.532;2023-07-28T03:00:38;17.10;99.90
52481;DHT22;38393;52.404;13.532;2023-07-28T03:03:05;17.10;99.90
52481;DHT22;38393;52.404;13.532;2023-07-28T03:05:31;17.10;99.90
52481;DHT22;38393;52.404;13.532;2023-07-28T03:07:57;17.00;99.90
52481;DHT22;38393;52.404;13.532;2023-07-28T03:10:23;17.10;99.90
52481;DHT22;38393;52.404;13.532;2023-07-28T03:12:48;17.10;99.90
52481;DHT22;38393;52.404;13.532;2023-07-28T03:15:14;17.10;99.90
52481;DHT22;38393;52.404;13.532;2023-07-28T03:17:39;17.10;99.90
52481;DHT22;38393;52.404;13.532;2023-07-28T03:20:05;17.10;99.90
52481;DHT22;38393;52.404;13.532;2023-07-28T03:22:31;17.10;99.90
52481;DHT22;38393;52.404;13.532;2023-07-28T03:24:57;17.20;99.90
52481;DHT22;38393;52.404;13.532;2023-07-28T03:27:22;17.20;99.90
52481;DHT22;38393;52.404;13.532;2023-07-28T03:29:48;17.20;99.90
52481;DHT22;38393;52.404;13.532;2023-07-28T03:32:13;17.10;99.90
52481;DHT22;38393;52.404;13.532;2023-07-28T03:34:39;17.20;99.90
52481;DHT22;38393;52.404;13.532;2023-07-28T03:37:04;17.20;99.90
52481;DHT22;38393;52.404;13.532;2023-07-28T03:39:30;17.20;99.90
52481;DHT22;38393;52.404;13.532;2023-07-28T03:41:56;17.20;99.90
52481;DHT22;38393;52.404;13.532;2023-07-28T03:44:23;17.30;99.90
52481;DHT22;38393;52.404;13.532;2023-07-28T03:46:48;17.30;99.90
52481;DHT22;38393;52.404;13.532;2023-07-28T03:49:13;17.30;99.90
52481;DHT22;38393;52.404;13.532;2023-07-28T03:51:39;17.40;99.90
52481;DHT22;38393;52.404;13.532;2023-07-28T03:54:04;17.30;99.90
52481;DHT22;38393;52.404;13.532;2023-07-28T03:56:30;17.30;99.90
52481;DHT22;38393;52.404;13.532;2023-07-28T03:58:55;17.40;99.90
52481;DHT22;38393;52.404;13.532;2023-07-28T04:01:21;17.40;99.90
52481;DHT22;38393;52.404;13.532;2023-07-28T04:03:47;17.40;99.90
52481;DHT22;38393;52.404;13.532;2023-07-28T04:06:13;17.40;99.90
52481;DHT22;38393;52.404;13.532;2023-07-28T04:08:39;17.40;99.90
52481;DHT22;38393;52.404;13.532;2023-07-28T04:11:04;17.40;99.90
52481;DHT22;38393;52.404;13.532;2023-07-28T04:13:30;17.50;99.90
52481;DHT22;38393;52.404;13.532;2023-07-28T04:15:55;17.40;99.90
52481;DHT22;38393;52.404;13.532;2023-07-28T04:18:21;17.40;99.90
52481;DHT22;38393;52.404;13.532;2023-07-28T04:20:46;17.40;99.90
52481;DHT22;38393;52.404;13.532;2023-07-28T04:23:12;17.40;99.90
52481;DHT22;38393;52.404;13.532;2023-07-28T04:25:38;17.30;99.90
52481;DHT22;38393;52.404;13.532;2023-07-28T04:28:03;17.40;99.90
52481;DHT22;38393;52.404;13.532;2023-07-28T04:30:29;17.50;99.90
52481;DHT22;38393;52.404;13.532;2023-07-28T04:32:54;17.50;99.90
52481;DHT22;38393;52.404;13.532;2023-07-28T04:35:19;17.50;99.90
52481;DHT22;38393;52.404;13.532;2023-07-28T04:37:45;17.50;99.90
52481;DHT22;38393;52.404;13.532;2023-07-28T04:40:11;17.50;99.90
52481;DHT22;38393;52.404;13.532;2023-07-28T04:42:36;17.60;99.90
52481;DHT22;38393;52.404;13.532;2023-07-28T04:45:03;17.70;99.90
52481;DHT22;38393;52.404;13.532;2023-07-28T04:47:28;17.60;99.90
52481;DHT22;38393;52.404;13.532;2023-07-28T04:49:54;17.60;99.90
52481;DHT22;38393;52.404;13.532;2023-07-28T04:52:19;17.60;99.90
52481;DHT22;38393;52.404;13.532;2023-07-28T04:54:45;17.60;99.90
52481;DHT22;38393;52.404;13.532;2023-07-28T04:57:10;17.60;99.90
52481;DHT22;38393;52.404;13.532;2023-07-28T04:59:35;17.60;99.90
52481;DHT22;38393;52.404;13.532;2023-07-28T05:02:01;17.50;99.90
52481;DHT22;38393;52.404;13.532;2023-07-28T05:04:26;17.60;99.90
52481;DHT22;38393;52.404;13.532;2023-07-28T05:06:52;17.50;99.90
52481;DHT22;38393;52.404;13.532;2023-07-28T05:09:17;17.60;99.90
52481;DHT22;38393;52.404;13.532;2023-07-28T05:11:43;17.60;99.90
52481;DHT22;38393;52.404;13.532;2023-07-28T05:14:08;17.60;99.90
52481;DHT22;38393;52.404;13.532;2023-07-28T05:16:34;17.60;99.90
52481;DHT22;38393;52.404;13.532;2023-07-28T05:19:00;17.70;99.90
52481;DHT22;38393;52.404;13.532;2023-07-28T05:21:25;17.70;99.90
52481;DHT22;38393;52.404;13.532;2023-07-28T05:23:51;17.70;99.90
52481;DHT22;38393;52.404;13.532;2023-07-28T05:26:16;17.60;99.90
52481;DHT22;38393;52.404;13.532;2023-07-28T05:28:42;17.90;99.90
52481;DHT22;38393;52.404;13.532;2023-07-28T05:31:07;18.00;99.90
52481;DHT22;38393;52.404;13.532;2023-07-28T05:33:33;18.00;99.90
52481;DHT22;38393;52.404;13.532;2023-07-28T05:36:01;18.00;99.90
52481;DHT22;38393;52.404;13.532;2023-07-28T05:38:27;17.90;99.90
52481;DHT22;38393;52.404;13.532;2023-07-28T05:40:59;17.90;99.90
52481;DHT22;38393;52.404;13.532;2023-07-28T05:43:29;17.90;99.90
52481;DHT22;38393;52.404;13.532;2023-07-28T05:45:56;17.90;99.90
52481;DHT22;38393;52.404;13.532;2023-07-28T05:48:21;17.80;99.90
52481;DHT22;38393;52.404;13.532;2023-07-28T05:50:47;17.90;99.90
52481;DHT22;38393;52.404;13.532;2023-07-28T05:53:13;17.80;99.90
52481;DHT22;38393;52.404;13.532;2023-07-28T05:55:39;17.90;99.90
52481;DHT22;38393;52.404;13.532;2023-07-28T05:58:05;17.90;99.90
52481;DHT22;38393;52.404;13.532;2023-07-28T06:00:30;17.90;99.90
52481;DHT22;38393;52.404;13.532;2023-07-28T06:02:56;18.10;99.90
52481;DHT22;38393;52.404;13.532;2023-07-28T06:05:22;18.10;99.90
52481;DHT22;38393;52.404;13.532;2023-07-28T06:07:48;18.00;99.90
52481;DHT22;38393;52.404;13.532;2023-07-28T06:10:13;17.90;99.90
52481;DHT22;38393;52.404;13.532;2023-07-28T06:12:39;17.90;99.90
52481;DHT22;38393;52.404;13.532;2023-07-28T06:15:04;18.00;99.90
52481;DHT22;38393;52.404;13.532;2023-07-28T06:17:30;18.00;99.90
52481;DHT22;38393;52.404;13.532;2023-07-28T06:19:56;18.00;99.90
52481;DHT22;38393;52.404;13.532;2023-07-28T06:22:21;18.00;99.90
52481;DHT22;38393;52.404;13.532;2023-07-28T06:24:46;18.00;99.90
52481;DHT22;38393;52.404;13.532;2023-07-28T06:27:12;18.00;99.90
52481;DHT22;38393;52.404;13.532;2023-07-28T06:29:37;18.00;99.90
52481;DHT22;38393;52.404;13.532;2023-07-28T06:32:03;18.10;99.90
52481;DHT22;38393;52.404;13.532;2023-07-28T06:34:29;18.20;99.90
52481;DHT22;38393;52.404;13.532;2023-07-28T06:36:54;18.10;99.90
52481;DHT22;38393;52.404;13.532;2023-07-28T06:39:20;18.20;99.90
52481;DHT22;38393;52.404;13.532;2023-07-28T06:41:45;18.30;99.90
52481;DHT22;38393;52.404;13.532;2023-07-28T06:44:11;18.40;99.90
52481;DHT22;38393;52.404;13.532;2023-07-28T06:46:37;18.40;99.90
52481;DHT22;38393;52.404;13.532;2023-07-28T06:49:03;18.40;99.90
52481;DHT22;38393;52.404;13.532;2023-07-28T06:51:28;18.40;99.90
52481;DHT22;38393;52.404;13.532;2023-07-28T06:53:54;18.60;99.90
52481;DHT22;38393;52.404;13.532;2023-07-28T06:56:19;18.60;99.90
52481;DHT22;38393;52.404;13.532;2023-07-28T06:58:45;18.60;99.90
52481;DHT22;38393;52.404;13.532;2023-07-28T07:01:10;18.60;99.90
52481;DHT22;38393;52.404;13.532;2023-07-28T07:03:39;18.80;99.90
52481;DHT22;38393;52.404;13.532;2023-07-28T07:06:04;18.80;99.90
52481;DHT22;38393;52.404;13.532;2023-07-28T07:08:30;18.80;99.90
52481;DHT22;38393;52.404;13.532;2023-07-28T07:10:55;18.80;99.90
52481;DHT22;38393;52.404;13.532;2023-07-28T07:13:21;18.70;99.90
52481;DHT22;38393;52.404;13.532;2023-07-28T07:15:47;18.70;99.90
52481;DHT22;38393;52.404;13.532;2023-07-28T07:18:12;18.80;99.90
52481;DHT22;38393;52.404;13.532;2023-07-28T07:20:38;18.80;99.90
52481;DHT22;38393;52.404;13.532;2023-07-28T07:23:04;18.80;99.90
52481;DHT22;38393;52.404;13.532;2023-07-28T07:25:30;18.90;99.90
52481;DHT22;38393;52.404;13.532;2023-07-28T07:27:56;19.00;99.90
52481;DHT22;38393;52.404;13.532;2023-07-28T07:30:22;19.00;99.90
52481;DHT22;38393;52.404;13.532;2023-07-28T07:32:47;19.20;99.90
52481;DHT22;38393;52.404;13.532;2023-07-28T07:35:13;19.40;99.90
52481;DHT22;38393;52.404;13.532;2023-07-28T07:37:38;19.50;99.90
52481;DHT22;38393;52.404;13.532;2023-07-28T07:40:05;19.40;99.90
52481;DHT22;38393;52.404;13.532;2023-07-28T07:42:46;19.50;99.90
52481;DHT22;38393;52.404;13.532;2023-07-28T07:45:12;19.50;99.90
52481;DHT22;38393;52.404;13.532;2023-07-28T07:47:41;19.60;99.90
52481;DHT22;38393;52.404;13.532;2023-07-28T07:50:08;19.40;99.90
52481;DHT22;38393;52.404;13.532;2023-07-28T07:52:35;19.40;99.90
52481;DHT22;38393;52.404;13.532;2023-07-28T07:55:02;19.40;99.90
52481;DHT22;38393;52.404;13.532;2023-07-28T07:57:28;19.40;99.90
52481;DHT22;38393;52.404;13.532;2023-07-28T07:59:53;19.60;99.90
52481;DHT22;38393;52.404;13.532;2023-07-28T08:02:19;19.80;99.90
52481;DHT22;38393;52.404;13.532;2023-07-28T08:04:44;19.90;99.90
52481;DHT22;38393;52.404;13.532;2023-07-28T08:07:09;20.10;99.90
52481;DHT22;38393;52.404;13.532;2023-07-28T08:09:35;20.20;99.90
52481;DHT22;38393;52.404;13.532;2023-07-28T08:12:00;20.00;99.90
52481;DHT22;38393;52.404;13.532;2023-07-28T08:14:26;20.10;99.90
52481;DHT22;38393;52.404;13.532;2023-07-28T08:16:52;20.60;99.90
52481;DHT22;38393;52.404;13.532;2023-07-28T08:19:17;20.80;99.90
52481;DHT22;38393;52.404;13.532;2023-07-28T08:21:43;20.50;99.90
52481;DHT22;38393;52.404;13.532;2023-07-28T08:24:09;20.50;99.90
52481;DHT22;38393;52.404;13.532;2023-07-28T08:26:34;20.40;99.90
52481;DHT22;38393;52.404;13.532;2023-07-28T08:28:59;20.60;99.90
52481;DHT22;38393;52.404;13.532;2023-07-28T08:31:25;20.70;99.90
52481;DHT22;38393;52.404;13.532;2023-07-28T08:33:50;20.80;99.90
52481;DHT22;38393;52.404;13.532;2023-07-28T08:36:16;20.90;99.90
52481;DHT22;38393;52.404;13.532;2023-07-28T08:38:41;21.10;99.90
52481;DHT22;38393;52.404;13.532;2023-07-28T08:41:07;21.80;99.90
52481;DHT22;38393;52.404;13.532;2023-07-28T08:43:32;21.50;99.90
52481;DHT22;38393;52.404;13.532;2023-07-28T08:45:58;21.30;99.90
52481;DHT22;38393;52.404;13.532;2023-07-28T08:48:24;21.30;99.90
52481;DHT22;38393;52.404;13.532;2023-07-28T08:50:49;21.50;99.90
52481;DHT22;38393;52.404;13.532;2023-07-28T08:53:16;21.50;99.90
52481;DHT22;38393;52.404;13.532;2023-07-28T08:55:42;21.50;99.90
52481;DHT22;38393;52.404;13.532;2023-07-28T08:58:21;21.70;99.90
52481;DHT22;38393;52.404;13.532;2023-07-28T09:00:47;21.50;99.90
52481;DHT22;38393;52.404;13.532;2023-07-28T09:03:19;21.00;99.90
52481;DHT22;38393;52.404;13.532;2023-07-28T09:05:46;20.60;99.90
52481;DHT22;38393;52.404;13.532;2023-07-28T09:08:15;20.40;99.90
52481;DHT22;38393;52.404;13.532;2023-07-28T09:10:46;20.80;99.90
52481;DHT22;38393;52.404;13.532;2023-07-28T09:13:13;21.30;99.90
52481;DHT22;38393;52.404;13.532;2023-07-28T09:15:39;21.50;99.90
52481;DHT22;38393;52.404;13.532;2023-07-28T09:18:08;21.70;99.90
52481;DHT22;38393;52.404;13.532;2023-07-28T09:20:35;22.00;99.90
52481;DHT22;38393;52.404;13.532;2023-07-28T09:23:02;22.00;99.90
52481;DHT22;38393;52.404;13.532;2023-07-28T09:25:29;21.70;99.90
52481;DHT22;38393;52.404;13.532;2023-07-28T09:27:56;21.40;99.90
52481;DHT22;38393;52.404;13.532;2023-07-28T09:30:23;21.50;99.90
52481;DHT22;38393;52.404;13.532;2023-07-28T09:32:51;21.70;99.90
52481;DHT22;38393;52.404;13.532;2023-07-28T09:35:17;21.20;99.90
52481;DHT22;38393;52.404;13.532;2023-07-28T09:37:46;20.90;99.90
52481;DHT22;38393;52.404;13.532;2023-07-28T09:40:16;20.60;99.90
52481;DHT22;38393;52.404;13.532;2023-07-28T09:42:44;20.40;99.90
52481;DHT22;38393;52.404;13.532;2023-07-28T09:45:14;20.30;99.90
52481;DHT22;38393;52.404;13.532;2023-07-28T09:47:40;20.20;99.90
52481;DHT22;38393;52.404;13.532;2023-07-28T09:50:08;20.20;99.90
52481;DHT22;38393;52.404;13.532;2023-07-28T09:52:38;20.30;99.90
52481;DHT22;38393;52.404;13.532;2023-07-28T09:55:07;20.40;99.90
52481;DHT22;38393;52.404;13.532;2023-07-28T09:57:46;20.60;99.90
52481;DHT22;38393;52.404;13.532;2023-07-28T10:00:15;20.60;99.90
52481;DHT22;38393;52.404;13.532;2023-07-28T10:02:41;20.70;99.90
52481;DHT22;38393;52.404;13.532;2023-07-28T10:05:08;20.70;99.90
52481;DHT22;38393;52.404;13.532;2023-07-28T10:07:35;20.70;99.90
52481;DHT22;38393;52.404;13.532;2023-07-28T10:10:06;20.80;99.90
52481;DHT22;38393;52.404;13.532;2023-07-28T10:12:40;21.00;99.90
52481;DHT22;38393;52.404;13.532;2023-07-28T10:15:07;21.20;99.90
52481;DHT22;38393;52.404;13.532;2023-07-28T10:17:34;21.10;99.90
52481;DHT22;38393;52.404;13.532;2023-07-28T10:20:03;21.30;99.90
52481;DHT22;38393;52.404;13.532;2023-07-28T10:22:45;21.10;99.90
52481;DHT22;38393;52.404;13.532;2023-07-28T10:25:11;20.80;99.90
52481;DHT22;38393;52.404;13.532;2023-07-28T10:27:38;21.00;99.90
52481;DHT22;38393;52.404;13.532;2023-07-28T10:32:41;21.30;99.90
52481;DHT22;38393;52.404;13.532;2023-07-28T10:37:36;21.20;99.90
52481;DHT22;38393;52.404;13.532;2023-07-28T10:42:47;21.30;99.90
52481;DHT22;38393;52.404;13.532;2023-07-28T10:45:13;21.00;99.90
52481;DHT22;38393;52.404;13.532;2023-07-28T10:47:39;21.10;99.90
52481;DHT22;38393;52.404;13.532;2023-07-28T10:50:05;21.30;99.90
52481;DHT22;38393;52.404;13.532;2023-07-28T10:52:34;21.30;99.90
52481;DHT22;38393;52.404;13.532;2023-07-28T10:54:59;21.30;99.90
52481;DHT22;38393;52.404;13.532;2023-07-28T10:57:25;21.20;99.90
52481;DHT22;38393;52.404;13.532;2023-07-28T10:59:54;21.20;99.90
52481;DHT22;38393;52.404;13.532;2023-07-28T11:02:20;21.10;99.90
52481;DHT22;38393;52.404;13.532;2023-07-28T11:04:48;21.40;99.90
52481;DHT22;38393;52.404;13.532;2023-07-28T11:07:14;21.60;99.90
52481;DHT22;38393;52.404;13.532;2023-07-28T11:09:39;21.90;99.90
52481;DHT22;38393;52.404;13.532;2023-07-28T11:12:08;22.30;99.90
52481;DHT22;38393;52.404;13.532;2023-07-28T11:14:34;22.50;99.90
52481;DHT22;38393;52.404;13.532;2023-07-28T11:17:01;22.50;99.90
52481;DHT22;38393;52.404;13.532;2023-07-28T11:19:26;22.10;99.90
52481;DHT22;38393;52.404;13.532;2023-07-28T11:21:52;22.10;99.90
52481;DHT22;38393;52.404;13.532;2023-07-28T11:24:19;22.10;99.90
52481;DHT22;38393;52.404;13.532;2023-07-28T11:29:12;21.90;99.90
52481;DHT22;38393;52.404;13.532;2023-07-28T11:31:38;21.90;99.90
52481;DHT22;38393;52.404;13.532;2023-07-28T11:34:13;21.90;99.90
52481;DHT22;38393;52.404;13.532;2023-07-28T11:36:38;21.90;99.90
52481;DHT22;38393;52.404;13.532;2023-07-28T11:39:04;22.10;99.90
52481;DHT22;38393;52.404;13.532;2023-07-28T11:41:31;22.20;99.90
52481;DHT22;38393;52.404;13.532;2023-07-28T11:43:58;22.50;99.90
52481;DHT22;38393;52.404;13.532;2023-07-28T11:49:13;22.30;99.20
52481;DHT22;38393;52.404;13.532;2023-07-28T11:51:43;21.70;99.90
52481;DHT22;38393;52.404;13.532;2023-07-28T11:54:13;21.00;99.90
52481;DHT22;38393;52.404;13.532;2023-07-28T11:56:43;20.90;99.90
52481;DHT22;38393;52.404;13.532;2023-07-28T11:59:09;20.70;99.90
52481;DHT22;38393;52.404;13.532;2023-07-28T12:01:35;20.40;99.90
52481;DHT22;38393;52.404;13.532;2023-07-28T12:04:19;20.50;99.90
52481;DHT22;38393;52.404;13.532;2023-07-28T12:07:16;20.80;99.90
52481;DHT22;38393;52.404;13.532;2023-07-28T12:09:49;21.20;99.90
52481;DHT22;38393;52.404;13.532;2023-07-28T12:12:18;21.40;99.90
52481;DHT22;38393;52.404;13.532;2023-07-28T12:14:43;21.60;99.90
52481;DHT22;38393;52.404;13.532;2023-07-28T12:17:15;21.60;99.90
52481;DHT22;38393;52.404;13.532;2023-07-28T12:19:42;21.60;99.90
52481;DHT22;38393;52.404;13.532;2023-07-28T12:22:08;21.60;99.90
52481;DHT22;38393;52.404;13.532;2023-07-28T12:24:34;21.70;99.90
52481;DHT22;38393;52.404;13.532;2023-07-28T12:26:59;21.60;99.90
52481;DHT22;38393;52.404;13.532;2023-07-28T12:29:24;21.70;99.90
52481;DHT22;38393;52.404;13.532;2023-07-28T12:31:50;21.90;99.90
52481;DHT22;38393;52.404;13.532;2023-07-28T12:34:15;22.00;99.90
52481;DHT22;38393;52.404;13.532;2023-07-28T12:36:41;22.10;99.90
52481;DHT22;38393;52.404;13.532;2023-07-28T12:39:06;21.90;99.90
52481;DHT22;38393;52.404;13.532;2023-07-28T12:41:32;21.70;99.90
52481;DHT22;38393;52.404;13.532;2023-07-28T12:43:58;21.60;99.90
52481;DHT22;38393;52.404;13.532;2023-07-28T12:46:23;21.60;99.90
52481;DHT22;38393;52.404;13.532;2023-07-28T12:48:49;21.60;99.90
52481;DHT22;38393;52.404;13.532;2023-07-28T12:51:14;21.50;99.90
52481;DHT22;38393;52.404;13.532;2023-07-28T12:53:40;21.50;99.90
52481;DHT22;38393;52.404;13.532;2023-07-28T13:00:58;20.10;99.90
52481;DHT22;38393;52.404;13.532;2023-07-28T13:03:26;19.60;99.90
52481;DHT22;38393;52.404;13.532;2023-07-28T13:05:52;19.60;99.90
52481;DHT22;38393;52.404;13.532;2023-07-28T13:08:17;19.60;99.90
52481;DHT22;38393;52.404;13.532;2023-07-28T13:10:43;19.80;99.90
52481;DHT22;38393;52.404;13.532;2023-07-28T13:13:08;19.90;99.90
52481;DHT22;38393;52.404;13.532;2023-07-28T13:15:34;20.10;99.90
52481;DHT22;38393;52.404;13.532;2023-07-28T13:17:59;20.10;99.90
52481;DHT22;38393;52.404;13.532;2023-07-28T13:20:25;20.10;99.90
52481;DHT22;38393;52.404;13.532;2023-07-28T13:22:50;20.40;99.90
52481;DHT22;38393;52.404;13.532;2023-07-28T13:25:16;20.40;99.90
52481;DHT22;38393;52.404;13.532;2023-07-28T13:27:41;20.30;99.90
52481;DHT22;38393;52.404;13.532;2023-07-28T13:30:07;20.30;99.90
52481;DHT22;38393;52.404;13.532;2023-07-28T13:32:33;20.20;99.90
52481;DHT22;38393;52.404;13.532;2023-07-28T13:34:58;20.40;99.90
52481;DHT22;38393;52.404;13.532;2023-07-28T13:37:24;20.60;99.90
52481;DHT22;38393;52.404;13.532;2023-07-28T13:39:49;20.60;99.90
52481;DHT22;38393;52.404;13.532;2023-07-28T13:42:17;20.70;99.90
52481;DHT22;38393;52.404;13.532;2023-07-28T13:44:42;20.60;99.90
52481;DHT22;38393;52.404;13.532;2023-07-28T13:47:08;20.60;99.90
52481;DHT22;38393;52.404;13.532;2023-07-28T13:49:34;20.70;99.90
52481;DHT22;38393;52.404;13.532;2023-07-28T13:52:02;20.50;99.90
52481;DHT22;38393;52.404;13.532;2023-07-28T13:54:27;20.60;99.90
52481;DHT22;38393;52.404;13.532;2023-07-28T13:56:53;20.50;99.90
52481;DHT22;38393;52.404;13.532;2023-07-28T13:59:18;20.50;99.90
52481;DHT22;38393;52.404;13.532;2023-07-28T14:01:44;20.40;99.90
52481;DHT22;38393;52.404;13.532;2023-07-28T14:04:09;20.50;99.90
52481;DHT22;38393;52.404;13.532;2023-07-28T14:06:35;20.50;99.90
52481;DHT22;38393;52.404;13.532;2023-07-28T14:09:00;20.90;99.90
52481;DHT22;38393;52.404;13.532;2023-07-28T14:11:26;21.30;99.90
52481;DHT22;38393;52.404;13.532;2023-07-28T14:13:51;21.60;99.90
52481;DHT22;38393;52.404;13.532;2023-07-28T14:18:42;21.30;99.90
52481;DHT22;38393;52.404;13.532;2023-07-28T14:21:08;21.20;99.90
52481;DHT22;38393;52.404;13.532;2023-07-28T14:23:33;21.10;99.90
52481;DHT22;38393;52.404;13.532;2023-07-28T14:25:59;21.00;99.90
52481;DHT22;38393;52.404;13.532;2023-07-28T14:28:24;21.10;99.90
52481;DHT22;38393;52.404;13.532;2023-07-28T14:30:51;21.00;99.90
52481;DHT22;38393;52.404;13.532;2023-07-28T14:33:17;21.10;99.90
52481;DHT22;38393;52.404;13.532;2023-07-28T14:35:44;21.30;99.90
52481;DHT22;38393;52.404;13.532;2023-07-28T14:38:10;21.50;99.90
52481;DHT22;38393;52.404;13.532;2023-07-28T14:40:37;22.00;99.90
52481;DHT22;38393;52.404;13.532;2023-07-28T14:43:03;21.90;99.90
52481;DHT22;38393;52.404;13.532;2023-07-28T14:45:29;21.90;99.90
52481;DHT22;38393;52.404;13.532;2023-07-28T14:47:55;21.80;99.90
52481;DHT22;38393;52.404;13.532;2023-07-28T14:50:21;21.60;99.90
52481;DHT22;38393;52.404;13.532;2023-07-28T14:52:47;21.60;99.90
52481;DHT22;38393;52.404;13.532;2023-07-28T14:55:12;21.70;99.90
52481;DHT22;38393;52.404;13.532;2023-07-28T14:57:38;21.50;99.90
52481;DHT22;38393;52.404;13.532;2023-07-28T15:00:04;21.40;99.90
52481;DHT22;38393;52.404;13.532;2023-07-28T15:02:31;21.50;99.90
52481;DHT22;38393;52.404;13.532;2023-07-28T15:04:57;21.50;99.90
52481;DHT22;38393;52.404;13.532;2023-07-28T15:07:22;21.30;99.90
52481;DHT22;38393;52.404;13.532;2023-07-28T15:09:48;21.40;99.90
52481;DHT22;38393;52.404;13.532;2023-07-28T15:12:13;21.80;99.90
52481;DHT22;38393;52.404;13.532;2023-07-28T15:14:39;21.70;99.90
52481;DHT22;38393;52.404;13.532;2023-07-28T15:17:04;21.50;99.90
52481;DHT22;38393;52.404;13.532;2023-07-28T15:19:30;21.60;99.90
52481;DHT22;38393;52.404;13.532;2023-07-28T15:21:55;21.70;99.90
52481;DHT22;38393;52.404;13.532;2023-07-28T15:24:22;21.70;99.90
52481;DHT22;38393;52.404;13.532;2023-07-28T15:26:47;21.50;99.90
52481;DHT22;38393;52.404;13.532;2023-07-28T15:29:15;21.60;99.90
52481;DHT22;38393;52.404;13.532;2023-07-28T15:31:40;21.60;99.90
52481;DHT22;38393;52.404;13.532;2023-07-28T15:34:06;21.50;99.90